Grand Valley, Colorado
Current Conditions -  °F | °C
As of 6:53 PM on Sunday 25 Jan 2015 (Local Time) from KRIL Reporting Station
Clear Clear  
Wind Chill: 31°   Ceiling: Unl
Heat Index: 36°   Visibility: 10mi
Dew Point: 26°   Wind: 6mph
Humidity: 67%   Direction: 180°S
Pressure: 30.37"   Gusts: NA
Location:  39.5849°N, 108.085°W
Report Text: KRIL 260153Z AUTO 18005KT 10SM CLR 02/M03 A3037 RMK AO2 SLP309 T00221033
Loading
Personal Weather Stations






























Interactive Weather Map New forecast layout! Learn more

10-Day Weather Forecast

Advertisements
Track Severe Weather on mobile